sensor_id;sensor_type;location;lat;lon;timestamp;temperature;humidity
9849;DHT22;4963;51.444;6.528;2024-01-07T00:00:31;2.50;99.90
9849;DHT22;4963;51.444;6.528;2024-01-07T00:02:58;2.50;99.90
9849;DHT22;4963;51.444;6.528;2024-01-07T00:05:25;2.50;99.90
9849;DHT22;4963;51.444;6.528;2024-01-07T00:07:53;2.50;99.90
9849;DHT22;4963;51.444;6.528;2024-01-07T00:10:20;2.50;99.90
9849;DHT22;4963;51.444;6.528;2024-01-07T00:12:46;2.50;99.90
9849;DHT22;4963;51.444;6.528;2024-01-07T00:15:14;2.50;99.90
9849;DHT22;4963;51.444;6.528;2024-01-07T00:17:40;2.50;99.90
9849;DHT22;4963;51.444;6.528;2024-01-07T00:20:08;2.40;99.90
9849;DHT22;4963;51.444;6.528;2024-01-07T00:22:36;2.40;99.90
9849;DHT22;4963;51.444;6.528;2024-01-07T00:25:04;2.40;99.90
9849;DHT22;4963;51.444;6.528;2024-01-07T00:27:32;2.40;99.90
9849;DHT22;4963;51.444;6.528;2024-01-07T00:29:59;2.40;99.90
9849;DHT22;4963;51.444;6.528;2024-01-07T00:32:26;2.40;99.90
9849;DHT22;4963;51.444;6.528;2024-01-07T00:34:54;2.40;99.90
9849;DHT22;4963;51.444;6.528;2024-01-07T00:37:21;2.30;99.90
9849;DHT22;4963;51.444;6.528;2024-01-07T00:39:48;2.30;99.90
9849;DHT22;4963;51.444;6.528;2024-01-07T00:42:16;2.30;99.90
9849;DHT22;4963;51.444;6.528;2024-01-07T00:44:43;2.30;99.90
9849;DHT22;4963;51.444;6.528;2024-01-07T00:47:10;2.30;99.90
9849;DHT22;4963;51.444;6.528;2024-01-07T00:49:37;2.30;99.90
9849;DHT22;4963;51.444;6.528;2024-01-07T00:52:07;2.30;99.90
9849;DHT22;4963;51.444;6.528;2024-01-07T00:54:34;2.30;99.90
9849;DHT22;4963;51.444;6.528;2024-01-07T00:57:01;2.30;99.90
9849;DHT22;4963;51.444;6.528;2024-01-07T00:59:29;2.30;99.90
9849;DHT22;4963;51.444;6.528;2024-01-07T01:01:56;2.30;99.90
9849;DHT22;4963;51.444;6.528;2024-01-07T01:04:24;2.30;99.90
9849;DHT22;4963;51.444;6.528;2024-01-07T01:06:51;2.30;99.90
9849;DHT22;4963;51.444;6.528;2024-01-07T01:09:18;2.20;99.90
9849;DHT22;4963;51.444;6.528;2024-01-07T01:11:45;2.30;99.90
9849;DHT22;4963;51.444;6.528;2024-01-07T01:14:12;2.30;99.90
9849;DHT22;4963;51.444;6.528;2024-01-07T01:16:40;2.30;99.90
9849;DHT22;4963;51.444;6.528;2024-01-07T01:19:08;2.20;99.90
9849;DHT22;4963;51.444;6.528;2024-01-07T01:21:35;2.20;99.90
9849;DHT22;4963;51.444;6.528;2024-01-07T01:24:02;2.20;99.90
9849;DHT22;4963;51.444;6.528;2024-01-07T01:26:29;2.20;99.90
9849;DHT22;4963;51.444;6.528;2024-01-07T01:28:56;2.20;99.90
9849;DHT22;4963;51.444;6.528;2024-01-07T01:31:23;2.20;99.90
9849;DHT22;4963;51.444;6.528;2024-01-07T01:33:51;2.20;99.90
9849;DHT22;4963;51.444;6.528;2024-01-07T01:36:18;2.20;99.90
9849;DHT22;4963;51.444;6.528;2024-01-07T01:38:45;2.20;99.90
9849;DHT22;4963;51.444;6.528;2024-01-07T01:41:14;2.10;99.90
9849;DHT22;4963;51.444;6.528;2024-01-07T01:43:41;2.10;99.90
9849;DHT22;4963;51.444;6.528;2024-01-07T01:46:08;2.10;99.90
9849;DHT22;4963;51.444;6.528;2024-01-07T01:48:36;2.10;99.90
9849;DHT22;4963;51.444;6.528;2024-01-07T01:51:04;2.10;99.90
9849;DHT22;4963;51.444;6.528;2024-01-07T01:53:32;2.20;99.90
9849;DHT22;4963;51.444;6.528;2024-01-07T01:56:01;2.20;99.90
9849;DHT22;4963;51.444;6.528;2024-01-07T01:58:29;2.10;99.90
9849;DHT22;4963;51.444;6.528;2024-01-07T02:00:56;2.10;99.90
9849;DHT22;4963;51.444;6.528;2024-01-07T02:03:23;2.10;99.90
9849;DHT22;4963;51.444;6.528;2024-01-07T02:05:50;2.10;99.90
9849;DHT22;4963;51.444;6.528;2024-01-07T02:08:19;2.10;99.90
9849;DHT22;4963;51.444;6.528;2024-01-07T02:10:46;2.10;99.90
9849;DHT22;4963;51.444;6.528;2024-01-07T02:13:12;2.10;99.90
9849;DHT22;4963;51.444;6.528;2024-01-07T02:15:39;2.20;99.90
9849;DHT22;4963;51.444;6.528;2024-01-07T02:18:06;2.20;99.90
9849;DHT22;4963;51.444;6.528;2024-01-07T02:20:33;2.20;99.90
9849;DHT22;4963;51.444;6.528;2024-01-07T02:23:01;2.20;99.90
9849;DHT22;4963;51.444;6.528;2024-01-07T02:25:34;2.10;99.90
9849;DHT22;4963;51.444;6.528;2024-01-07T02:28:00;2.10;99.90
9849;DHT22;4963;51.444;6.528;2024-01-07T02:30:27;2.10;99.90
9849;DHT22;4963;51.444;6.528;2024-01-07T02:32:54;2.10;99.90
9849;DHT22;4963;51.444;6.528;2024-01-07T02:35:21;2.10;99.90
9849;DHT22;4963;51.444;6.528;2024-01-07T02:37:48;2.10;99.90
9849;DHT22;4963;51.444;6.528;2024-01-07T02:40:15;2.10;99.90
9849;DHT22;4963;51.444;6.528;2024-01-07T02:42:43;2.10;99.90
9849;DHT22;4963;51.444;6.528;2024-01-07T02:45:10;2.00;99.90
9849;DHT22;4963;51.444;6.528;2024-01-07T02:47:36;2.00;99.90
9849;DHT22;4963;51.444;6.528;2024-01-07T02:50:04;2.10;99.90
9849;DHT22;4963;51.444;6.528;2024-01-07T02:52:31;2.00;99.90
9849;DHT22;4963;51.444;6.528;2024-01-07T02:54:59;2.00;99.90
9849;DHT22;4963;51.444;6.528;2024-01-07T02:57:27;2.00;99.90
9849;DHT22;4963;51.444;6.528;2024-01-07T02:59:57;2.00;99.90
9849;DHT22;4963;51.444;6.528;2024-01-07T03:02:24;1.90;99.90
9849;DHT22;4963;51.444;6.528;2024-01-07T03:04:51;2.00;99.90
9849;DHT22;4963;51.444;6.528;2024-01-07T03:07:18;2.00;99.90
9849;DHT22;4963;51.444;6.528;2024-01-07T03:09:45;2.00;99.90
9849;DHT22;4963;51.444;6.528;2024-01-07T03:12:11;1.90;99.90
9849;DHT22;4963;51.444;6.528;2024-01-07T03:14:39;1.90;99.90
9849;DHT22;4963;51.444;6.528;2024-01-07T03:17:09;1.80;99.90
9849;DHT22;4963;51.444;6.528;2024-01-07T03:19:37;1.80;99.90
9849;DHT22;4963;51.444;6.528;2024-01-07T03:22:04;1.70;99.90
9849;DHT22;4963;51.444;6.528;2024-01-07T03:24:32;1.70;99.90
9849;DHT22;4963;51.444;6.528;2024-01-07T03:26:59;1.80;99.90
9849;DHT22;4963;51.444;6.528;2024-01-07T03:29:26;1.70;99.90
9849;DHT22;4963;51.444;6.528;2024-01-07T03:31:53;1.70;99.90
9849;DHT22;4963;51.444;6.528;2024-01-07T03:34:21;1.70;99.90
9849;DHT22;4963;51.444;6.528;2024-01-07T03:36:48;1.70;99.90
9849;DHT22;4963;51.444;6.528;2024-01-07T03:39:15;1.70;99.90
9849;DHT22;4963;51.444;6.528;2024-01-07T03:41:42;1.70;99.90
9849;DHT22;4963;51.444;6.528;2024-01-07T03:44:08;1.80;99.90
9849;DHT22;4963;51.444;6.528;2024-01-07T03:46:35;1.80;99.90
9849;DHT22;4963;51.444;6.528;2024-01-07T03:49:02;1.90;99.90
9849;DHT22;4963;51.444;6.528;2024-01-07T03:51:30;1.90;99.90
9849;DHT22;4963;51.444;6.528;2024-01-07T03:53:57;1.90;99.90
9849;DHT22;4963;51.444;6.528;2024-01-07T03:56:24;1.80;99.90
9849;DHT22;4963;51.444;6.528;2024-01-07T03:58:51;1.80;99.90
9849;DHT22;4963;51.444;6.528;2024-01-07T04:01:18;1.80;99.90
9849;DHT22;4963;51.444;6.528;2024-01-07T04:03:44;1.80;99.90
9849;DHT22;4963;51.444;6.528;2024-01-07T04:06:11;1.70;99.90
9849;DHT22;4963;51.444;6.528;2024-01-07T04:08:39;1.70;99.90
9849;DHT22;4963;51.444;6.528;2024-01-07T04:11:06;1.60;99.90
9849;DHT22;4963;51.444;6.528;2024-01-07T04:13:33;1.60;99.90
9849;DHT22;4963;51.444;6.528;2024-01-07T04:16:00;1.50;99.90
9849;DHT22;4963;51.444;6.528;2024-01-07T04:18:27;1.40;99.90
9849;DHT22;4963;51.444;6.528;2024-01-07T04:20:53;1.40;99.90
9849;DHT22;4963;51.444;6.528;2024-01-07T04:23:20;1.40;99.90
9849;DHT22;4963;51.444;6.528;2024-01-07T04:25:48;1.40;99.90
9849;DHT22;4963;51.444;6.528;2024-01-07T04:28:15;1.40;99.90
9849;DHT22;4963;51.444;6.528;2024-01-07T04:30:42;1.40;99.90
9849;DHT22;4963;51.444;6.528;2024-01-07T04:33:09;1.40;99.90
9849;DHT22;4963;51.444;6.528;2024-01-07T04:35:36;1.40;99.90
9849;DHT22;4963;51.444;6.528;2024-01-07T04:38:03;1.40;99.90
9849;DHT22;4963;51.444;6.528;2024-01-07T04:40:30;1.50;99.90
9849;DHT22;4963;51.444;6.528;2024-01-07T04:42:58;1.40;99.90
9849;DHT22;4963;51.444;6.528;2024-01-07T04:45:25;1.50;99.90
9849;DHT22;4963;51.444;6.528;2024-01-07T04:47:52;1.50;99.90
9849;DHT22;4963;51.444;6.528;2024-01-07T04:50:19;1.50;99.90
9849;DHT22;4963;51.444;6.528;2024-01-07T04:52:46;1.50;99.90
9849;DHT22;4963;51.444;6.528;2024-01-07T04:55:13;1.50;99.90
9849;DHT22;4963;51.444;6.528;2024-01-07T04:57:40;1.50;99.90
9849;DHT22;4963;51.444;6.528;2024-01-07T05:00:09;1.50;99.90
9849;DHT22;4963;51.444;6.528;2024-01-07T05:02:36;1.50;99.90
9849;DHT22;4963;51.444;6.528;2024-01-07T05:05:03;1.40;99.90
9849;DHT22;4963;51.444;6.528;2024-01-07T05:07:30;1.40;99.90
9849;DHT22;4963;51.444;6.528;2024-01-07T05:09:57;1.40;99.90
9849;DHT22;4963;51.444;6.528;2024-01-07T05:12:24;1.40;99.90
9849;DHT22;4963;51.444;6.528;2024-01-07T05:14:51;1.30;99.90
9849;DHT22;4963;51.444;6.528;2024-01-07T05:17:19;1.30;99.90
9849;DHT22;4963;51.444;6.528;2024-01-07T05:19:46;1.30;99.90
9849;DHT22;4963;51.444;6.528;2024-01-07T05:22:13;1.40;99.90
9849;DHT22;4963;51.444;6.528;2024-01-07T05:24:40;1.40;99.90
9849;DHT22;4963;51.444;6.528;2024-01-07T05:27:07;1.30;99.90
9849;DHT22;4963;51.444;6.528;2024-01-07T05:29:34;1.30;99.90
9849;DHT22;4963;51.444;6.528;2024-01-07T05:32:01;1.30;99.90
9849;DHT22;4963;51.444;6.528;2024-01-07T05:34:29;1.30;99.90
9849;DHT22;4963;51.444;6.528;2024-01-07T05:36:56;1.20;99.90
9849;DHT22;4963;51.444;6.528;2024-01-07T05:39:23;1.20;99.90
9849;DHT22;4963;51.444;6.528;2024-01-07T05:41:50;1.20;99.90
9849;DHT22;4963;51.444;6.528;2024-01-07T05:44:17;1.20;99.90
9849;DHT22;4963;51.444;6.528;2024-01-07T05:46:44;1.20;99.90
9849;DHT22;4963;51.444;6.528;2024-01-07T05:49:10;1.20;99.90
9849;DHT22;4963;51.444;6.528;2024-01-07T05:51:40;1.20;99.90
9849;DHT22;4963;51.444;6.528;2024-01-07T05:54:07;1.20;99.90
9849;DHT22;4963;51.444;6.528;2024-01-07T05:56:38;1.30;99.90
9849;DHT22;4963;51.444;6.528;2024-01-07T05:59:05;1.30;99.90
9849;DHT22;4963;51.444;6.528;2024-01-07T06:01:32;1.30;99.90
9849;DHT22;4963;51.444;6.528;2024-01-07T06:03:59;1.30;99.90
9849;DHT22;4963;51.444;6.528;2024-01-07T06:06:26;1.30;99.90
9849;DHT22;4963;51.444;6.528;2024-01-07T06:08:54;1.30;99.90
9849;DHT22;4963;51.444;6.528;2024-01-07T06:11:21;1.30;99.90
9849;DHT22;4963;51.444;6.528;2024-01-07T06:13:48;1.20;99.90
9849;DHT22;4963;51.444;6.528;2024-01-07T06:16:15;1.20;99.90
9849;DHT22;4963;51.444;6.528;2024-01-07T06:18:41;1.30;99.90
9849;DHT22;4963;51.444;6.528;2024-01-07T06:21:08;1.20;99.90
9849;DHT22;4963;51.444;6.528;2024-01-07T06:23:35;1.10;99.90
9849;DHT22;4963;51.444;6.528;2024-01-07T06:26:05;1.10;99.90
9849;DHT22;4963;51.444;6.528;2024-01-07T06:28:32;1.10;99.90
9849;DHT22;4963;51.444;6.528;2024-01-07T06:30:59;1.10;99.90
9849;DHT22;4963;51.444;6.528;2024-01-07T06:33:29;1.10;99.90
9849;DHT22;4963;51.444;6.528;2024-01-07T06:35:55;1.10;99.90
9849;DHT22;4963;51.444;6.528;2024-01-07T06:38:22;1.10;99.90
9849;DHT22;4963;51.444;6.528;2024-01-07T06:40:49;1.00;99.90
9849;DHT22;4963;51.444;6.528;2024-01-07T06:43:18;1.00;99.90
9849;DHT22;4963;51.444;6.528;2024-01-07T06:45:44;0.90;99.90
9849;DHT22;4963;51.444;6.528;2024-01-07T06:48:11;0.90;99.90
9849;DHT22;4963;51.444;6.528;2024-01-07T06:50:38;0.90;99.90
9849;DHT22;4963;51.444;6.528;2024-01-07T06:53:05;0.90;99.90
9849;DHT22;4963;51.444;6.528;2024-01-07T06:55:32;0.90;99.90
9849;DHT22;4963;51.444;6.528;2024-01-07T06:57:58;0.80;99.90
9849;DHT22;4963;51.444;6.528;2024-01-07T07:00:27;0.80;99.90
9849;DHT22;4963;51.444;6.528;2024-01-07T07:02:53;0.90;99.90
9849;DHT22;4963;51.444;6.528;2024-01-07T07:05:20;0.90;99.90
9849;DHT22;4963;51.444;6.528;2024-01-07T07:07:47;0.90;99.90
9849;DHT22;4963;51.444;6.528;2024-01-07T07:10:14;0.90;99.90
9849;DHT22;4963;51.444;6.528;2024-01-07T07:12:41;0.90;99.90
9849;DHT22;4963;51.444;6.528;2024-01-07T07:15:08;0.90;99.90
9849;DHT22;4963;51.444;6.528;2024-01-07T07:17:37;0.90;99.90
9849;DHT22;4963;51.444;6.528;2024-01-07T07:20:05;0.90;99.90
9849;DHT22;4963;51.444;6.528;2024-01-07T07:22:33;0.90;99.90
9849;DHT22;4963;51.444;6.528;2024-01-07T07:25:00;0.90;99.90
9849;DHT22;4963;51.444;6.528;2024-01-07T07:27:27;0.90;99.90
9849;DHT22;4963;51.444;6.528;2024-01-07T07:29:55;0.90;99.90
9849;DHT22;4963;51.444;6.528;2024-01-07T07:32:21;1.00;99.90
9849;DHT22;4963;51.444;6.528;2024-01-07T07:34:50;1.00;99.90
9849;DHT22;4963;51.444;6.528;2024-01-07T07:37:17;1.10;99.90
9849;DHT22;4963;51.444;6.528;2024-01-07T07:39:45;1.00;99.90
9849;DHT22;4963;51.444;6.528;2024-01-07T07:42:12;1.00;99.90
9849;DHT22;4963;51.444;6.528;2024-01-07T07:44:38;1.00;99.90
9849;DHT22;4963;51.444;6.528;2024-01-07T07:47:05;1.00;99.90
9849;DHT22;4963;51.444;6.528;2024-01-07T07:49:33;0.90;99.90
9849;DHT22;4963;51.444;6.528;2024-01-07T07:52:02;0.90;99.90
9849;DHT22;4963;51.444;6.528;2024-01-07T07:54:29;0.90;99.90
9849;DHT22;4963;51.444;6.528;2024-01-07T07:56:56;0.90;99.90
9849;DHT22;4963;51.444;6.528;2024-01-07T07:59:23;0.90;99.90
9849;DHT22;4963;51.444;6.528;2024-01-07T08:01:50;0.90;99.90
9849;DHT22;4963;51.444;6.528;2024-01-07T08:04:17;0.90;99.90
9849;DHT22;4963;51.444;6.528;2024-01-07T08:06:44;0.90;99.90
9849;DHT22;4963;51.444;6.528;2024-01-07T08:09:13;1.00;99.90
9849;DHT22;4963;51.444;6.528;2024-01-07T08:11:40;1.00;99.90
9849;DHT22;4963;51.444;6.528;2024-01-07T08:14:07;1.00;99.90
9849;DHT22;4963;51.444;6.528;2024-01-07T08:16:34;1.00;99.90
9849;DHT22;4963;51.444;6.528;2024-01-07T08:19:01;0.90;99.90
9849;DHT22;4963;51.444;6.528;2024-01-07T08:21:28;0.90;99.90
9849;DHT22;4963;51.444;6.528;2024-01-07T08:23:55;1.00;99.90
9849;DHT22;4963;51.444;6.528;2024-01-07T08:26:23;1.00;99.90
9849;DHT22;4963;51.444;6.528;2024-01-07T08:28:50;0.90;99.90
9849;DHT22;4963;51.444;6.528;2024-01-07T08:31:18;0.90;99.90
9849;DHT22;4963;51.444;6.528;2024-01-07T08:33:44;0.90;99.90
9849;DHT22;4963;51.444;6.528;2024-01-07T08:36:11;0.90;99.90
9849;DHT22;4963;51.444;6.528;2024-01-07T08:38:38;0.90;99.90
9849;DHT22;4963;51.444;6.528;2024-01-07T08:41:05;0.90;99.90
9849;DHT22;4963;51.444;6.528;2024-01-07T08:43:34;0.90;99.90
9849;DHT22;4963;51.444;6.528;2024-01-07T08:46:03;0.90;99.90
9849;DHT22;4963;51.444;6.528;2024-01-07T08:48:31;0.90;99.90
9849;DHT22;4963;51.444;6.528;2024-01-07T08:50:57;0.90;99.90
9849;DHT22;4963;51.444;6.528;2024-01-07T08:53:24;0.80;99.90
9849;DHT22;4963;51.444;6.528;2024-01-07T08:55:51;0.80;99.90
9849;DHT22;4963;51.444;6.528;2024-01-07T08:58:18;0.80;99.90
9849;DHT22;4963;51.444;6.528;2024-01-07T09:00:47;0.90;99.90
9849;DHT22;4963;51.444;6.528;2024-01-07T09:03:14;0.90;99.90
9849;DHT22;4963;51.444;6.528;2024-01-07T09:05:41;0.90;99.90
9849;DHT22;4963;51.444;6.528;2024-01-07T09:08:08;0.90;99.90
9849;DHT22;4963;51.444;6.528;2024-01-07T09:10:38;0.80;99.90
9849;DHT22;4963;51.444;6.528;2024-01-07T09:13:04;0.80;99.90
9849;DHT22;4963;51.444;6.528;2024-01-07T09:15:32;0.80;99.90
9849;DHT22;4963;51.444;6.528;2024-01-07T09:18:00;0.80;99.90
9849;DHT22;4963;51.444;6.528;2024-01-07T09:20:27;0.80;99.90
9849;DHT22;4963;51.444;6.528;2024-01-07T09:22:54;0.80;99.90
9849;DHT22;4963;51.444;6.528;2024-01-07T09:25:21;0.80;99.90
9849;DHT22;4963;51.444;6.528;2024-01-07T09:27:47;0.80;99.90
9849;DHT22;4963;51.444;6.528;2024-01-07T09:30:14;0.70;99.90
9849;DHT22;4963;51.444;6.528;2024-01-07T09:32:43;0.70;99.90
9849;DHT22;4963;51.444;6.528;2024-01-07T09:35:13;0.70;99.90
9849;DHT22;4963;51.444;6.528;2024-01-07T09:37:40;0.70;99.90
9849;DHT22;4963;51.444;6.528;2024-01-07T09:40:08;0.70;99.90
9849;DHT22;4963;51.444;6.528;2024-01-07T09:42:35;0.60;99.90
9849;DHT22;4963;51.444;6.528;2024-01-07T09:45:03;0.70;99.90
9849;DHT22;4963;51.444;6.528;2024-01-07T09:47:30;0.60;99.90
9849;DHT22;4963;51.444;6.528;2024-01-07T09:49:57;0.60;99.90
9849;DHT22;4963;51.444;6.528;2024-01-07T09:52:26;0.70;99.90
9849;DHT22;4963;51.444;6.528;2024-01-07T09:54:55;0.70;99.90
9849;DHT22;4963;51.444;6.528;2024-01-07T09:57:23;0.70;99.90
9849;DHT22;4963;51.444;6.528;2024-01-07T09:59:50;0.60;99.90
9849;DHT22;4963;51.444;6.528;2024-01-07T10:02:18;0.60;99.90
9849;DHT22;4963;51.444;6.528;2024-01-07T10:04:45;0.60;99.90
9849;DHT22;4963;51.444;6.528;2024-01-07T10:07:13;0.60;99.90
9849;DHT22;4963;51.444;6.528;2024-01-07T10:09:42;0.70;99.90
9849;DHT22;4963;51.444;6.528;2024-01-07T10:12:09;0.70;99.90
9849;DHT22;4963;51.444;6.528;2024-01-07T10:14:38;0.60;99.90
9849;DHT22;4963;51.444;6.528;2024-01-07T10:17:16;0.60;99.90
9849;DHT22;4963;51.444;6.528;2024-01-07T10:19:44;0.70;99.90
9849;DHT22;4963;51.444;6.528;2024-01-07T10:22:12;0.70;99.90
9849;DHT22;4963;51.444;6.528;2024-01-07T10:24:41;0.60;99.90
9849;DHT22;4963;51.444;6.528;2024-01-07T10:27:09;0.70;99.90
9849;DHT22;4963;51.444;6.528;2024-01-07T10:29:37;0.70;99.90
9849;DHT22;4963;51.444;6.528;2024-01-07T10:32:05;0.70;99.90
9849;DHT22;4963;51.444;6.528;2024-01-07T10:34:33;0.60;99.90
9849;DHT22;4963;51.444;6.528;2024-01-07T10:37:01;0.70;99.90
9849;DHT22;4963;51.444;6.528;2024-01-07T10:39:29;0.60;99.90
9849;DHT22;4963;51.444;6.528;2024-01-07T10:41:57;0.60;99.90
9849;DHT22;4963;51.444;6.528;2024-01-07T10:44:32;0.60;99.90
9849;DHT22;4963;51.444;6.528;2024-01-07T10:47:06;0.60;99.90
9849;DHT22;4963;51.444;6.528;2024-01-07T10:49:35;0.60;99.90
9849;DHT22;4963;51.444;6.528;2024-01-07T10:52:04;0.70;99.90
9849;DHT22;4963;51.444;6.528;2024-01-07T10:54:32;0.70;99.90
9849;DHT22;4963;51.444;6.528;2024-01-07T10:57:07;0.70;99.90
9849;DHT22;4963;51.444;6.528;2024-01-07T10:59:34;0.70;99.90
9849;DHT22;4963;51.444;6.528;2024-01-07T11:02:03;0.70;99.90
9849;DHT22;4963;51.444;6.528;2024-01-07T11:04:39;0.70;99.90
9849;DHT22;4963;51.444;6.528;2024-01-07T11:07:17;0.60;99.90
9849;DHT22;4963;51.444;6.528;2024-01-07T11:09:56;0.60;99.90
9849;DHT22;4963;51.444;6.528;2024-01-07T11:12:28;0.60;99.90
9849;DHT22;4963;51.444;6.528;2024-01-07T11:14:55;0.60;99.90
9849;DHT22;4963;51.444;6.528;2024-01-07T11:17:40;0.50;99.90
9849;DHT22;4963;51.444;6.528;2024-01-07T11:20:21;0.60;99.90
9849;DHT22;4963;51.444;6.528;2024-01-07T11:22:52;0.60;99.90
9849;DHT22;4963;51.444;6.528;2024-01-07T11:25:29;0.60;99.90
9849;DHT22;4963;51.444;6.528;2024-01-07T11:28:01;0.60;99.90
9849;DHT22;4963;51.444;6.528;2024-01-07T11:30:27;0.60;99.90
9849;DHT22;4963;51.444;6.528;2024-01-07T11:32:58;0.60;99.90
9849;DHT22;4963;51.444;6.528;2024-01-07T11:35:53;0.60;99.90
9849;DHT22;4963;51.444;6.528;2024-01-07T11:38:20;0.60;99.90
9849;DHT22;4963;51.444;6.528;2024-01-07T11:40:48;0.60;99.90
9849;DHT22;4963;51.444;6.528;2024-01-07T11:43:17;0.60;99.90
9849;DHT22;4963;51.444;6.528;2024-01-07T11:45:44;0.60;99.90
9849;DHT22;4963;51.444;6.528;2024-01-07T11:48:11;0.60;99.90
9849;DHT22;4963;51.444;6.528;2024-01-07T11:50:38;0.70;99.90
9849;DHT22;4963;51.444;6.528;2024-01-07T11:53:05;0.70;99.90
9849;DHT22;4963;51.444;6.528;2024-01-07T11:55:32;0.70;99.90
9849;DHT22;4963;51.444;6.528;2024-01-07T11:58:01;0.70;99.90
9849;DHT22;4963;51.444;6.528;2024-01-07T12:00:31;0.70;99.90
9849;DHT22;4963;51.444;6.528;2024-01-07T12:02:59;0.70;99.90
9849;DHT22;4963;51.444;6.528;2024-01-07T12:05:26;0.70;99.90
9849;DHT22;4963;51.444;6.528;2024-01-07T12:07:53;0.70;99.90
9849;DHT22;4963;51.444;6.528;2024-01-07T12:10:20;0.70;99.90
9849;DHT22;4963;51.444;6.528;2024-01-07T12:12:47;0.70;99.90
9849;DHT22;4963;51.444;6.528;2024-01-07T12:15:14;0.70;99.90
9849;DHT22;4963;51.444;6.528;2024-01-07T12:17:54;0.70;99.90
9849;DHT22;4963;51.444;6.528;2024-01-07T12:20:21;0.70;99.90
9849;DHT22;4963;51.444;6.528;2024-01-07T12:22:48;0.70;99.90
9849;DHT22;4963;51.444;6.528;2024-01-07T12:25:21;0.60;99.90
9849;DHT22;4963;51.444;6.528;2024-01-07T12:27:49;0.60;99.90
9849;DHT22;4963;51.444;6.528;2024-01-07T12:30:19;0.60;99.90
9849;DHT22;4963;51.444;6.528;2024-01-07T12:32:47;0.50;99.90
9849;DHT22;4963;51.444;6.528;2024-01-07T12:35:14;0.50;99.90
9849;DHT22;4963;51.444;6.528;2024-01-07T12:37:42;0.50;99.90
9849;DHT22;4963;51.444;6.528;2024-01-07T12:40:11;0.50;99.90
9849;DHT22;4963;51.444;6.528;2024-01-07T12:42:38;0.50;99.90
9849;DHT22;4963;51.444;6.528;2024-01-07T12:45:10;0.50;99.90
9849;DHT22;4963;51.444;6.528;2024-01-07T12:47:39;0.50;99.90
9849;DHT22;4963;51.444;6.528;2024-01-07T12:50:08;0.50;99.90
9849;DHT22;4963;51.444;6.528;2024-01-07T12:52:37;0.50;99.90
9849;DHT22;4963;51.444;6.528;2024-01-07T12:55:05;0.40;99.90
9849;DHT22;4963;51.444;6.528;2024-01-07T12:57:32;0.40;99.90
9849;DHT22;4963;51.444;6.528;2024-01-07T13:00:02;0.30;99.90
9849;DHT22;4963;51.444;6.528;2024-01-07T13:02:31;0.20;99.90
9849;DHT22;4963;51.444;6.528;2024-01-07T13:04:58;0.20;99.90
9849;DHT22;4963;51.444;6.528;2024-01-07T13:07:27;0.20;99.90
9849;DHT22;4963;51.444;6.528;2024-01-07T13:09:55;0.20;99.90
9849;DHT22;4963;51.444;6.528;2024-01-07T13:12:22;0.20;99.90
9849;DHT22;4963;51.444;6.528;2024-01-07T13:14:49;0.20;99.90
9849;DHT22;4963;51.444;6.528;2024-01-07T13:17:16;0.20;99.90
9849;DHT22;4963;51.444;6.528;2024-01-07T13:19:43;0.20;99.90
9849;DHT22;4963;51.444;6.528;2024-01-07T13:22:10;0.10;99.90
9849;DHT22;4963;51.444;6.528;2024-01-07T13:24:38;0.00;99.90
9849;DHT22;4963;51.444;6.528;2024-01-07T13:27:06;0.00;99.90
9849;DHT22;4963;51.444;6.528;2024-01-07T13:29:33;0.00;99.90
9849;DHT22;4963;51.444;6.528;2024-01-07T13:32:00;0.00;99.90
9849;DHT22;4963;51.444;6.528;2024-01-07T13:34:27;0.00;99.90
9849;DHT22;4963;51.444;6.528;2024-01-07T13:36:54;0.00;99.90
9849;DHT22;4963;51.444;6.528;2024-01-07T13:39:21;0.00;99.90
9849;DHT22;4963;51.444;6.528;2024-01-07T13:41:49;0.00;99.90
9849;DHT22;4963;51.444;6.528;2024-01-07T13:44:16;-0.10;99.90
9849;DHT22;4963;51.444;6.528;2024-01-07T13:46:44;0.00;99.90
9849;DHT22;4963;51.444;6.528;2024-01-07T13:49:12;0.00;99.90
9849;DHT22;4963;51.444;6.528;2024-01-07T13:51:39;0.00;99.90
9849;DHT22;4963;51.444;6.528;2024-01-07T13:54:06;0.00;99.90
9849;DHT22;4963;51.444;6.528;2024-01-07T13:56:35;0.10;99.90
9849;DHT22;4963;51.444;6.528;2024-01-07T13:59:04;0.10;99.90
9849;DHT22;4963;51.444;6.528;2024-01-07T14:01:32;0.10;99.90
9849;DHT22;4963;51.444;6.528;2024-01-07T14:03:59;0.00;99.90
9849;DHT22;4963;51.444;6.528;2024-01-07T14:06:27;0.10;99.90
9849;DHT22;4963;51.444;6.528;2024-01-07T14:08:54;0.10;99.90
9849;DHT22;4963;51.444;6.528;2024-01-07T14:11:21;0.10;99.90
9849;DHT22;4963;51.444;6.528;2024-01-07T14:13:48;0.10;99.90
9849;DHT22;4963;51.444;6.528;2024-01-07T14:16:16;0.20;99.90
9849;DHT22;4963;51.444;6.528;2024-01-07T14:18:43;0.10;99.90
9849;DHT22;4963;51.444;6.528;2024-01-07T14:21:10;0.10;99.90
9849;DHT22;4963;51.444;6.528;2024-01-07T14:23:37;0.10;99.90
9849;DHT22;4963;51.444;6.528;2024-01-07T14:26:04;0.10;99.90
9849;DHT22;4963;51.444;6.528;2024-01-07T14:28:31;0.10;99.90
9849;DHT22;4963;51.444;6.528;2024-01-07T14:30:57;0.00;99.90
9849;DHT22;4963;51.444;6.528;2024-01-07T14:33:26;0.00;99.90
9849;DHT22;4963;51.444;6.528;2024-01-07T14:35:53;0.00;99.90
9849;DHT22;4963;51.444;6.528;2024-01-07T14:38:19;0.00;99.90
9849;DHT22;4963;51.444;6.528;2024-01-07T14:40:47;0.00;99.90
9849;DHT22;4963;51.444;6.528;2024-01-07T14:43:16;0.00;99.90
9849;DHT22;4963;51.444;6.528;2024-01-07T14:45:43;0.00;99.90
9849;DHT22;4963;51.444;6.528;2024-01-07T14:48:10;0.00;99.90
9849;DHT22;4963;51.444;6.528;2024-01-07T14:50:38;0.00;99.90
9849;DHT22;4963;51.444;6.528;2024-01-07T14:53:05;0.00;99.90
9849;DHT22;4963;51.444;6.528;2024-01-07T14:55:32;0.00;99.90
9849;DHT22;4963;51.444;6.528;2024-01-07T14:57:59;0.00;99.90
9849;DHT22;4963;51.444;6.528;2024-01-07T15:00:26;0.00;99.90
9849;DHT22;4963;51.444;6.528;2024-01-07T15:02:53;0.00;99.90
9849;DHT22;4963;51.444;6.528;2024-01-07T15:05:19;0.00;99.90
9849;DHT22;4963;51.444;6.528;2024-01-07T15:07:48;0.00;99.90
9849;DHT22;4963;51.444;6.528;2024-01-07T15:10:16;0.00;99.90
9849;DHT22;4963;51.444;6.528;2024-01-07T15:12:44;0.00;99.90
9849;DHT22;4963;51.444;6.528;2024-01-07T15:15:11;0.00;99.90
9849;DHT22;4963;51.444;6.528;2024-01-07T15:17:38;0.10;99.90
9849;DHT22;4963;51.444;6.528;2024-01-07T15:20:06;0.10;99.90
9849;DHT22;4963;51.444;6.528;2024-01-07T15:22:33;0.10;99.90
9849;DHT22;4963;51.444;6.528;2024-01-07T15:25:03;0.00;99.90
9849;DHT22;4963;51.444;6.528;2024-01-07T15:27:30;0.10;99.90
9849;DHT22;4963;51.444;6.528;2024-01-07T15:29:58;0.10;99.90
9849;DHT22;4963;51.444;6.528;2024-01-07T15:32:24;0.10;99.90
9849;DHT22;4963;51.444;6.528;2024-01-07T15:34:53;0.10;99.90
9849;DHT22;4963;51.444;6.528;2024-01-07T15:37:20;0.10;99.90
9849;DHT22;4963;51.444;6.528;2024-01-07T15:39:46;0.10;99.90
9849;DHT22;4963;51.444;6.528;2024-01-07T15:42:15;0.20;99.90
9849;DHT22;4963;51.444;6.528;2024-01-07T15:44:42;0.20;99.90
9849;DHT22;4963;51.444;6.528;2024-01-07T15:47:09;0.20;99.90
9849;DHT22;4963;51.444;6.528;2024-01-07T15:49:36;0.20;99.90
9849;DHT22;4963;51.444;6.528;2024-01-07T15:52:04;0.20;99.90
9849;DHT22;4963;51.444;6.528;2024-01-07T15:54:31;0.20;99.90
9849;DHT22;4963;51.444;6.528;2024-01-07T15:56:58;0.20;99.90
9849;DHT22;4963;51.444;6.528;2024-01-07T15:59:26;0.20;99.90
9849;DHT22;4963;51.444;6.528;2024-01-07T16:01:53;0.20;99.90
9849;DHT22;4963;51.444;6.528;2024-01-07T16:04:21;0.20;99.90
9849;DHT22;4963;51.444;6.528;2024-01-07T16:06:47;0.20;99.90
9849;DHT22;4963;51.444;6.528;2024-01-07T16:09:14;0.30;99.90
9849;DHT22;4963;51.444;6.528;2024-01-07T16:11:41;0.30;99.90
9849;DHT22;4963;51.444;6.528;2024-01-07T16:14:08;0.20;99.90
9849;DHT22;4963;51.444;6.528;2024-01-07T16:16:36;0.20;99.90
9849;DHT22;4963;51.444;6.528;2024-01-07T16:19:07;0.20;99.90